sensor_id;sensor_type;location;lat;lon;timestamp;P1;durP1;ratioP1;P2;durP2;ratioP2
42066;SDS011;27734;47.028;28.820;2023-11-19T00:02:22;21.00;;;9.03;;
42066;SDS011;27734;47.028;28.820;2023-11-19T00:04:55;19.53;;;7.67;;
42066;SDS011;27734;47.028;28.820;2023-11-19T00:07:26;19.17;;;8.43;;
42066;SDS011;27734;47.028;28.820;2023-11-19T00:09:58;19.77;;;9.57;;
42066;SDS011;27734;47.028;28.820;2023-11-19T00:12:38;22.83;;;9.33;;
42066;SDS011;27734;47.028;28.820;2023-11-19T00:15:12;17.20;;;7.33;;
42066;SDS011;27734;47.028;28.820;2023-11-19T00:17:45;19.55;;;8.50;;
42066;SDS011;27734;47.028;28.820;2023-11-19T00:20:17;18.60;;;8.87;;
42066;SDS011;27734;47.028;28.820;2023-11-19T00:22:50;19.23;;;8.58;;
42066;SDS011;27734;47.028;28.820;2023-11-19T00:25:22;17.20;;;7.95;;
42066;SDS011;27734;47.028;28.820;2023-11-19T00:27:53;19.30;;;8.20;;
42066;SDS011;27734;47.028;28.820;2023-11-19T00:30:25;17.23;;;7.77;;
42066;SDS011;27734;47.028;28.820;2023-11-19T00:32:56;17.47;;;8.07;;
42066;SDS011;27734;47.028;28.820;2023-11-19T00:35:28;15.60;;;7.23;;
42066;SDS011;27734;47.028;28.820;2023-11-19T00:38:01;16.83;;;7.00;;
42066;SDS011;27734;47.028;28.820;2023-11-19T00:40:32;15.90;;;7.23;;
42066;SDS011;27734;47.028;28.820;2023-11-19T00:43:04;16.00;;;7.20;;
42066;SDS011;27734;47.028;28.820;2023-11-19T00:45:35;16.20;;;7.57;;
42066;SDS011;27734;47.028;28.820;2023-11-19T00:48:07;17.27;;;6.70;;
42066;SDS011;27734;47.028;28.820;2023-11-19T00:50:39;12.57;;;6.43;;
42066;SDS011;27734;47.028;28.820;2023-11-19T00:53:13;14.03;;;6.27;;
42066;SDS011;27734;47.028;28.820;2023-11-19T00:55:45;14.10;;;6.23;;
42066;SDS011;27734;47.028;28.820;2023-11-19T00:58:16;14.60;;;6.35;;
42066;SDS011;27734;47.028;28.820;2023-11-19T01:00:48;14.60;;;6.10;;
42066;SDS011;27734;47.028;28.820;2023-11-19T01:03:19;10.90;;;5.53;;
42066;SDS011;27734;47.028;28.820;2023-11-19T01:05:51;11.47;;;5.10;;
42066;SDS011;27734;47.028;28.820;2023-11-19T01:08:23;10.83;;;5.37;;
42066;SDS011;27734;47.028;28.820;2023-11-19T01:10:54;9.40;;;4.75;;
42066;SDS011;27734;47.028;28.820;2023-11-19T01:13:26;10.50;;;5.05;;
42066;SDS011;27734;47.028;28.820;2023-11-19T01:15:57;13.10;;;5.53;;
42066;SDS011;27734;47.028;28.820;2023-11-19T01:18:30;11.13;;;5.53;;
42066;SDS011;27734;47.028;28.820;2023-11-19T01:21:02;10.37;;;4.80;;
42066;SDS011;27734;47.028;28.820;2023-11-19T01:23:35;11.10;;;5.70;;
42066;SDS011;27734;47.028;28.820;2023-11-19T01:26:06;10.93;;;5.63;;
42066;SDS011;27734;47.028;28.820;2023-11-19T01:28:40;13.43;;;5.80;;
42066;SDS011;27734;47.028;28.820;2023-11-19T01:31:14;13.00;;;6.03;;
42066;SDS011;27734;47.028;28.820;2023-11-19T01:33:46;11.90;;;5.70;;
42066;SDS011;27734;47.028;28.820;2023-11-19T01:36:17;13.77;;;6.10;;
42066;SDS011;27734;47.028;28.820;2023-11-19T01:38:49;12.97;;;5.80;;
42066;SDS011;27734;47.028;28.820;2023-11-19T01:41:20;14.87;;;6.10;;
42066;SDS011;27734;47.028;28.820;2023-11-19T01:43:53;14.87;;;6.27;;
42066;SDS011;27734;47.028;28.820;2023-11-19T01:46:25;13.77;;;6.20;;
42066;SDS011;27734;47.028;28.820;2023-11-19T01:48:57;11.15;;;5.15;;
42066;SDS011;27734;47.028;28.820;2023-11-19T01:51:29;11.47;;;5.50;;
42066;SDS011;27734;47.028;28.820;2023-11-19T01:54:00;13.20;;;5.50;;
42066;SDS011;27734;47.028;28.820;2023-11-19T01:56:32;12.63;;;5.67;;
42066;SDS011;27734;47.028;28.820;2023-11-19T01:59:05;16.03;;;6.03;;
42066;SDS011;27734;47.028;28.820;2023-11-19T02:01:37;14.13;;;6.23;;
42066;SDS011;27734;47.028;28.820;2023-11-19T02:04:09;13.07;;;6.33;;
42066;SDS011;27734;47.028;28.820;2023-11-19T02:06:42;12.40;;;6.30;;
42066;SDS011;27734;47.028;28.820;2023-11-19T02:09:14;16.17;;;6.33;;
42066;SDS011;27734;47.028;28.820;2023-11-19T02:11:47;15.23;;;6.63;;
42066;SDS011;27734;47.028;28.820;2023-11-19T02:14:19;13.10;;;6.10;;
42066;SDS011;27734;47.028;28.820;2023-11-19T02:16:55;13.40;;;5.93;;
42066;SDS011;27734;47.028;28.820;2023-11-19T02:19:27;10.55;;;4.90;;
42066;SDS011;27734;47.028;28.820;2023-11-19T02:21:58;14.10;;;6.07;;
42066;SDS011;27734;47.028;28.820;2023-11-19T02:24:30;12.37;;;5.80;;
42066;SDS011;27734;47.028;28.820;2023-11-19T02:27:05;14.97;;;6.50;;
42066;SDS011;27734;47.028;28.820;2023-11-19T02:29:43;14.07;;;6.30;;
42066;SDS011;27734;47.028;28.820;2023-11-19T02:32:16;15.20;;;6.53;;
42066;SDS011;27734;47.028;28.820;2023-11-19T02:34:47;17.10;;;6.33;;
42066;SDS011;27734;47.028;28.820;2023-11-19T02:37:21;12.50;;;6.17;;
42066;SDS011;27734;47.028;28.820;2023-11-19T02:39:52;16.20;;;6.60;;
42066;SDS011;27734;47.028;28.820;2023-11-19T02:42:24;12.73;;;5.70;;
42066;SDS011;27734;47.028;28.820;2023-11-19T02:44:56;13.83;;;5.83;;
42066;SDS011;27734;47.028;28.820;2023-11-19T02:47:27;16.03;;;7.40;;
42066;SDS011;27734;47.028;28.820;2023-11-19T02:49:59;15.40;;;6.40;;
42066;SDS011;27734;47.028;28.820;2023-11-19T02:52:31;13.80;;;6.45;;
42066;SDS011;27734;47.028;28.820;2023-11-19T02:55:06;14.00;;;6.27;;
42066;SDS011;27734;47.028;28.820;2023-11-19T02:57:41;15.37;;;6.93;;
42066;SDS011;27734;47.028;28.820;2023-11-19T03:00:17;14.60;;;6.40;;
42066;SDS011;27734;47.028;28.820;2023-11-19T03:02:52;11.40;;;5.93;;
42066;SDS011;27734;47.028;28.820;2023-11-19T03:05:28;13.50;;;6.03;;
42066;SDS011;27734;47.028;28.820;2023-11-19T03:07:59;12.85;;;5.85;;
42066;SDS011;27734;47.028;28.820;2023-11-19T03:10:31;16.47;;;7.30;;
42066;SDS011;27734;47.028;28.820;2023-11-19T03:13:03;16.60;;;7.23;;
42066;SDS011;27734;47.028;28.820;2023-11-19T03:15:34;14.03;;;6.43;;
42066;SDS011;27734;47.028;28.820;2023-11-19T03:18:05;13.77;;;6.27;;
42066;SDS011;27734;47.028;28.820;2023-11-19T03:20:37;15.97;;;6.77;;
42066;SDS011;27734;47.028;28.820;2023-11-19T03:23:09;15.70;;;6.90;;
42066;SDS011;27734;47.028;28.820;2023-11-19T03:25:40;13.95;;;6.30;;
42066;SDS011;27734;47.028;28.820;2023-11-19T03:28:12;12.77;;;6.27;;
42066;SDS011;27734;47.028;28.820;2023-11-19T03:30:44;14.30;;;6.37;;
42066;SDS011;27734;47.028;28.820;2023-11-19T03:33:15;12.57;;;5.20;;
42066;SDS011;27734;47.028;28.820;2023-11-19T03:35:47;15.53;;;6.50;;
42066;SDS011;27734;47.028;28.820;2023-11-19T03:38:20;14.57;;;6.13;;
42066;SDS011;27734;47.028;28.820;2023-11-19T03:40:51;10.80;;;4.67;;
42066;SDS011;27734;47.028;28.820;2023-11-19T03:43:23;14.10;;;5.60;;
42066;SDS011;27734;47.028;28.820;2023-11-19T03:45:55;15.10;;;6.37;;
42066;SDS011;27734;47.028;28.820;2023-11-19T03:48:26;16.13;;;6.47;;
42066;SDS011;27734;47.028;28.820;2023-11-19T03:50:58;14.07;;;6.30;;
42066;SDS011;27734;47.028;28.820;2023-11-19T03:53:30;14.80;;;6.15;;
42066;SDS011;27734;47.028;28.820;2023-11-19T03:56:02;14.40;;;5.97;;
42066;SDS011;27734;47.028;28.820;2023-11-19T03:58:34;15.13;;;6.30;;
42066;SDS011;27734;47.028;28.820;2023-11-19T04:01:06;12.27;;;5.37;;
42066;SDS011;27734;47.028;28.820;2023-11-19T04:03:42;14.87;;;5.93;;
42066;SDS011;27734;47.028;28.820;2023-11-19T04:06:14;13.40;;;5.90;;
42066;SDS011;27734;47.028;28.820;2023-11-19T04:08:45;12.53;;;5.57;;
42066;SDS011;27734;47.028;28.820;2023-11-19T04:11:17;12.60;;;5.80;;
42066;SDS011;27734;47.028;28.820;2023-11-19T04:13:49;13.80;;;6.00;;
42066;SDS011;27734;47.028;28.820;2023-11-19T04:16:25;12.97;;;5.53;;
42066;SDS011;27734;47.028;28.820;2023-11-19T04:18:58;14.17;;;6.10;;
42066;SDS011;27734;47.028;28.820;2023-11-19T04:21:29;13.93;;;5.80;;
42066;SDS011;27734;47.028;28.820;2023-11-19T04:24:01;15.17;;;6.57;;
42066;SDS011;27734;47.028;28.820;2023-11-19T04:26:33;13.27;;;6.27;;
42066;SDS011;27734;47.028;28.820;2023-11-19T04:29:04;14.60;;;5.20;;
42066;SDS011;27734;47.028;28.820;2023-11-19T04:31:36;12.00;;;5.73;;
42066;SDS011;27734;47.028;28.820;2023-11-19T04:34:08;13.75;;;6.15;;
42066;SDS011;27734;47.028;28.820;2023-11-19T04:36:40;14.67;;;6.43;;
42066;SDS011;27734;47.028;28.820;2023-11-19T04:39:12;14.03;;;6.10;;
42066;SDS011;27734;47.028;28.820;2023-11-19T04:41:47;13.37;;;6.17;;
42066;SDS011;27734;47.028;28.820;2023-11-19T04:44:20;17.93;;;6.23;;
42066;SDS011;27734;47.028;28.820;2023-11-19T04:46:52;15.13;;;7.07;;
42066;SDS011;27734;47.028;28.820;2023-11-19T04:49:23;16.93;;;6.40;;
42066;SDS011;27734;47.028;28.820;2023-11-19T04:51:55;16.17;;;6.73;;
42066;SDS011;27734;47.028;28.820;2023-11-19T04:54:27;12.80;;;5.67;;
42066;SDS011;27734;47.028;28.820;2023-11-19T04:56:58;15.77;;;6.27;;
42066;SDS011;27734;47.028;28.820;2023-11-19T04:59:31;14.80;;;6.37;;
42066;SDS011;27734;47.028;28.820;2023-11-19T05:02:05;12.63;;;6.00;;
42066;SDS011;27734;47.028;28.820;2023-11-19T05:04:37;13.57;;;5.63;;
42066;SDS011;27734;47.028;28.820;2023-11-19T05:07:12;12.80;;;5.57;;
42066;SDS011;27734;47.028;28.820;2023-11-19T05:09:43;13.47;;;5.53;;
42066;SDS011;27734;47.028;28.820;2023-11-19T05:12:15;13.50;;;6.23;;
42066;SDS011;27734;47.028;28.820;2023-11-19T05:14:46;16.93;;;5.90;;
42066;SDS011;27734;47.028;28.820;2023-11-19T05:17:19;15.50;;;6.20;;
42066;SDS011;27734;47.028;28.820;2023-11-19T05:19:50;12.70;;;5.77;;
42066;SDS011;27734;47.028;28.820;2023-11-19T05:22:22;16.07;;;6.07;;
42066;SDS011;27734;47.028;28.820;2023-11-19T05:24:54;15.10;;;6.60;;
42066;SDS011;27734;47.028;28.820;2023-11-19T05:27:25;16.27;;;6.30;;
42066;SDS011;27734;47.028;28.820;2023-11-19T05:29:57;16.60;;;6.60;;
42066;SDS011;27734;47.028;28.820;2023-11-19T05:32:28;15.90;;;6.57;;
42066;SDS011;27734;47.028;28.820;2023-11-19T05:35:00;16.23;;;6.47;;
42066;SDS011;27734;47.028;28.820;2023-11-19T05:37:32;15.77;;;7.17;;
42066;SDS011;27734;47.028;28.820;2023-11-19T05:40:05;15.63;;;6.17;;
42066;SDS011;27734;47.028;28.820;2023-11-19T05:42:42;14.67;;;6.30;;
42066;SDS011;27734;47.028;28.820;2023-11-19T05:45:14;12.30;;;5.33;;
42066;SDS011;27734;47.028;28.820;2023-11-19T05:47:46;14.47;;;5.80;;
42066;SDS011;27734;47.028;28.820;2023-11-19T05:50:20;16.05;;;7.35;;
42066;SDS011;27734;47.028;28.820;2023-11-19T05:52:52;16.60;;;6.73;;
42066;SDS011;27734;47.028;28.820;2023-11-19T05:55:23;14.45;;;6.20;;
42066;SDS011;27734;47.028;28.820;2023-11-19T05:57:56;18.77;;;7.03;;
42066;SDS011;27734;47.028;28.820;2023-11-19T06:00:28;18.47;;;7.73;;
42066;SDS011;27734;47.028;28.820;2023-11-19T06:03:00;16.67;;;6.67;;
42066;SDS011;27734;47.028;28.820;2023-11-19T06:05:31;14.00;;;6.40;;
42066;SDS011;27734;47.028;28.820;2023-11-19T06:08:03;15.93;;;6.83;;
42066;SDS011;27734;47.028;28.820;2023-11-19T06:10:35;17.70;;;7.03;;
42066;SDS011;27734;47.028;28.820;2023-11-19T06:13:08;18.67;;;6.30;;
42066;SDS011;27734;47.028;28.820;2023-11-19T06:15:40;17.77;;;7.20;;
42066;SDS011;27734;47.028;28.820;2023-11-19T06:18:11;15.73;;;7.43;;
42066;SDS011;27734;47.028;28.820;2023-11-19T06:20:43;17.87;;;6.10;;
42066;SDS011;27734;47.028;28.820;2023-11-19T06:23:14;13.87;;;6.33;;
42066;SDS011;27734;47.028;28.820;2023-11-19T06:25:46;18.17;;;6.83;;
42066;SDS011;27734;47.028;28.820;2023-11-19T06:28:18;17.73;;;7.17;;
42066;SDS011;27734;47.028;28.820;2023-11-19T06:30:49;14.80;;;6.53;;
42066;SDS011;27734;47.028;28.820;2023-11-19T06:33:21;14.93;;;6.37;;
42066;SDS011;27734;47.028;28.820;2023-11-19T06:35:52;15.43;;;6.50;;
42066;SDS011;27734;47.028;28.820;2023-11-19T06:38:23;15.70;;;6.80;;
42066;SDS011;27734;47.028;28.820;2023-11-19T06:40:55;14.90;;;6.47;;
42066;SDS011;27734;47.028;28.820;2023-11-19T06:43:27;14.77;;;6.43;;
42066;SDS011;27734;47.028;28.820;2023-11-19T06:45:58;13.83;;;6.17;;
42066;SDS011;27734;47.028;28.820;2023-11-19T06:48:30;15.13;;;6.53;;
42066;SDS011;27734;47.028;28.820;2023-11-19T06:51:04;15.60;;;6.37;;
42066;SDS011;27734;47.028;28.820;2023-11-19T06:53:36;15.13;;;6.50;;
42066;SDS011;27734;47.028;28.820;2023-11-19T06:56:18;13.80;;;6.03;;
42066;SDS011;27734;47.028;28.820;2023-11-19T06:58:51;15.03;;;5.53;;
42066;SDS011;27734;47.028;28.820;2023-11-19T07:01:22;13.57;;;6.20;;
42066;SDS011;27734;47.028;28.820;2023-11-19T07:03:54;13.57;;;5.90;;
42066;SDS011;27734;47.028;28.820;2023-11-19T07:06:26;13.57;;;6.20;;
42066;SDS011;27734;47.028;28.820;2023-11-19T07:08:58;12.50;;;5.43;;
42066;SDS011;27734;47.028;28.820;2023-11-19T07:11:34;12.83;;;5.73;;
42066;SDS011;27734;47.028;28.820;2023-11-19T07:14:07;12.93;;;5.60;;
42066;SDS011;27734;47.028;28.820;2023-11-19T07:16:39;13.70;;;6.00;;
42066;SDS011;27734;47.028;28.820;2023-11-19T07:19:11;12.07;;;5.30;;
42066;SDS011;27734;47.028;28.820;2023-11-19T07:21:43;14.83;;;6.10;;
42066;SDS011;27734;47.028;28.820;2023-11-19T07:24:15;13.90;;;6.10;;
42066;SDS011;27734;47.028;28.820;2023-11-19T07:26:46;11.33;;;5.73;;
42066;SDS011;27734;47.028;28.820;2023-11-19T07:29:18;13.37;;;5.67;;
42066;SDS011;27734;47.028;28.820;2023-11-19T07:31:50;12.67;;;5.63;;
42066;SDS011;27734;47.028;28.820;2023-11-19T07:34:22;12.90;;;6.10;;
42066;SDS011;27734;47.028;28.820;2023-11-19T07:36:53;14.13;;;6.13;;
42066;SDS011;27734;47.028;28.820;2023-11-19T07:39:27;15.47;;;6.03;;
42066;SDS011;27734;47.028;28.820;2023-11-19T07:41:59;14.23;;;5.40;;
42066;SDS011;27734;47.028;28.820;2023-11-19T07:44:31;15.07;;;5.67;;
42066;SDS011;27734;47.028;28.820;2023-11-19T07:47:02;14.73;;;6.20;;
42066;SDS011;27734;47.028;28.820;2023-11-19T07:49:34;10.93;;;5.33;;
42066;SDS011;27734;47.028;28.820;2023-11-19T07:52:06;15.90;;;6.80;;
42066;SDS011;27734;47.028;28.820;2023-11-19T07:54:38;14.67;;;6.83;;
42066;SDS011;27734;47.028;28.820;2023-11-19T07:57:09;17.43;;;6.83;;
42066;SDS011;27734;47.028;28.820;2023-11-19T07:59:41;16.30;;;6.77;;
42066;SDS011;27734;47.028;28.820;2023-11-19T08:02:12;16.03;;;6.40;;
42066;SDS011;27734;47.028;28.820;2023-11-19T08:04:44;14.17;;;6.60;;
42066;SDS011;27734;47.028;28.820;2023-11-19T08:07:18;14.20;;;6.30;;
42066;SDS011;27734;47.028;28.820;2023-11-19T08:09:50;12.73;;;4.63;;
42066;SDS011;27734;47.028;28.820;2023-11-19T08:12:21;13.27;;;6.10;;
42066;SDS011;27734;47.028;28.820;2023-11-19T08:14:53;15.63;;;6.73;;
42066;SDS011;27734;47.028;28.820;2023-11-19T08:17:26;14.27;;;6.07;;
42066;SDS011;27734;47.028;28.820;2023-11-19T08:19:58;13.17;;;5.60;;
42066;SDS011;27734;47.028;28.820;2023-11-19T08:22:29;12.90;;;5.60;;
42066;SDS011;27734;47.028;28.820;2023-11-19T08:25:01;13.70;;;6.37;;
42066;SDS011;27734;47.028;28.820;2023-11-19T08:27:33;12.23;;;5.73;;
42066;SDS011;27734;47.028;28.820;2023-11-19T08:30:10;12.80;;;6.23;;
42066;SDS011;27734;47.028;28.820;2023-11-19T08:32:42;14.27;;;6.23;;
42066;SDS011;27734;47.028;28.820;2023-11-19T08:35:14;14.47;;;6.43;;
42066;SDS011;27734;47.028;28.820;2023-11-19T08:40:18;14.00;;;6.73;;
42066;SDS011;27734;47.028;28.820;2023-11-19T08:42:49;17.13;;;7.40;;
42066;SDS011;27734;47.028;28.820;2023-11-19T08:45:23;13.57;;;6.37;;
42066;SDS011;27734;47.028;28.820;2023-11-19T08:47:54;15.13;;;6.60;;
42066;SDS011;27734;47.028;28.820;2023-11-19T08:50:26;14.57;;;6.50;;
42066;SDS011;27734;47.028;28.820;2023-11-19T08:52:58;14.50;;;6.37;;
42066;SDS011;27734;47.028;28.820;2023-11-19T08:55:29;12.27;;;5.97;;
42066;SDS011;27734;47.028;28.820;2023-11-19T08:58:01;15.33;;;6.30;;
42066;SDS011;27734;47.028;28.820;2023-11-19T09:00:54;12.97;;;6.07;;
42066;SDS011;27734;47.028;28.820;2023-11-19T09:03:26;14.07;;;6.17;;
42066;SDS011;27734;47.028;28.820;2023-11-19T09:06:01;15.53;;;6.47;;
42066;SDS011;27734;47.028;28.820;2023-11-19T09:08:33;13.70;;;6.33;;
42066;SDS011;27734;47.028;28.820;2023-11-19T09:11:08;15.70;;;7.27;;
42066;SDS011;27734;47.028;28.820;2023-11-19T09:13:40;13.27;;;5.87;;
42066;SDS011;27734;47.028;28.820;2023-11-19T09:16:13;14.87;;;6.13;;
42066;SDS011;27734;47.028;28.820;2023-11-19T09:18:44;15.30;;;6.57;;
42066;SDS011;27734;47.028;28.820;2023-11-19T09:21:16;15.10;;;6.83;;
42066;SDS011;27734;47.028;28.820;2023-11-19T09:23:47;15.33;;;7.40;;
42066;SDS011;27734;47.028;28.820;2023-11-19T09:26:19;14.60;;;6.37;;
42066;SDS011;27734;47.028;28.820;2023-11-19T09:28:51;14.70;;;6.60;;
42066;SDS011;27734;47.028;28.820;2023-11-19T09:31:22;16.00;;;7.10;;
42066;SDS011;27734;47.028;28.820;2023-11-19T09:33:54;17.23;;;7.50;;
42066;SDS011;27734;47.028;28.820;2023-11-19T09:36:25;17.30;;;6.75;;
42066;SDS011;27734;47.028;28.820;2023-11-19T09:38:57;16.37;;;7.60;;
42066;SDS011;27734;47.028;28.820;2023-11-19T09:41:30;13.20;;;5.90;;
42066;SDS011;27734;47.028;28.820;2023-11-19T09:44:03;12.03;;;6.07;;
42066;SDS011;27734;47.028;28.820;2023-11-19T09:46:34;14.63;;;6.13;;
42066;SDS011;27734;47.028;28.820;2023-11-19T09:49:06;12.67;;;6.17;;
42066;SDS011;27734;47.028;28.820;2023-11-19T09:51:40;15.95;;;7.08;;
42066;SDS011;27734;47.028;28.820;2023-11-19T09:54:12;16.53;;;6.90;;
42066;SDS011;27734;47.028;28.820;2023-11-19T09:56:43;15.20;;;6.10;;
42066;SDS011;27734;47.028;28.820;2023-11-19T09:59:16;12.50;;;6.50;;
42066;SDS011;27734;47.028;28.820;2023-11-19T10:01:48;14.90;;;7.07;;
42066;SDS011;27734;47.028;28.820;2023-11-19T10:04:20;14.07;;;6.63;;
42066;SDS011;27734;47.028;28.820;2023-11-19T10:06:52;15.43;;;7.10;;
42066;SDS011;27734;47.028;28.820;2023-11-19T10:09:23;17.87;;;7.60;;
42066;SDS011;27734;47.028;28.820;2023-11-19T10:11:55;17.50;;;6.97;;
42066;SDS011;27734;47.028;28.820;2023-11-19T10:14:27;14.00;;;7.00;;
42066;SDS011;27734;47.028;28.820;2023-11-19T10:17:00;13.43;;;6.23;;
42066;SDS011;27734;47.028;28.820;2023-11-19T10:19:32;14.30;;;7.13;;
42066;SDS011;27734;47.028;28.820;2023-11-19T10:22:05;15.57;;;7.10;;
42066;SDS011;27734;47.028;28.820;2023-11-19T10:24:37;13.83;;;6.97;;
42066;SDS011;27734;47.028;28.820;2023-11-19T10:27:09;16.77;;;7.43;;
42066;SDS011;27734;47.028;28.820;2023-11-19T10:29:45;18.40;;;7.25;;
42066;SDS011;27734;47.028;28.820;2023-11-19T10:32:17;15.33;;;6.77;;
42066;SDS011;27734;47.028;28.820;2023-11-19T10:34:50;14.70;;;7.22;;
42066;SDS011;27734;47.028;28.820;2023-11-19T10:37:28;14.57;;;6.80;;
42066;SDS011;27734;47.028;28.820;2023-11-19T10:40:00;14.35;;;6.80;;
42066;SDS011;27734;47.028;28.820;2023-11-19T10:42:33;16.63;;;6.97;;
42066;SDS011;27734;47.028;28.820;2023-11-19T10:45:06;14.70;;;6.87;;
42066;SDS011;27734;47.028;28.820;2023-11-19T10:47:53;16.57;;;6.70;;
42066;SDS011;27734;47.028;28.820;2023-11-19T10:50:26;14.03;;;6.37;;
42066;SDS011;27734;47.028;28.820;2023-11-19T10:52:58;16.35;;;7.45;;
42066;SDS011;27734;47.028;28.820;2023-11-19T10:55:32;14.57;;;6.53;;
42066;SDS011;27734;47.028;28.820;2023-11-19T10:58:05;14.00;;;6.90;;
42066;SDS011;27734;47.028;28.820;2023-11-19T11:00:43;13.93;;;6.62;;
42066;SDS011;27734;47.028;28.820;2023-11-19T11:03:18;12.70;;;5.93;;
42066;SDS011;27734;47.028;28.820;2023-11-19T11:08:21;12.87;;;6.10;;
42066;SDS011;27734;47.028;28.820;2023-11-19T11:10:54;15.47;;;6.77;;
42066;SDS011;27734;47.028;28.820;2023-11-19T11:13:28;13.70;;;6.60;;
42066;SDS011;27734;47.028;28.820;2023-11-19T11:16:01;14.80;;;6.93;;
42066;SDS011;27734;47.028;28.820;2023-11-19T11:18:36;14.47;;;6.70;;
42066;SDS011;27734;47.028;28.820;2023-11-19T11:21:08;16.60;;;7.40;;
42066;SDS011;27734;47.028;28.820;2023-11-19T11:27:02;16.80;;;7.63;;
42066;SDS011;27734;47.028;28.820;2023-11-19T11:29:47;14.53;;;6.67;;
42066;SDS011;27734;47.028;28.820;2023-11-19T11:32:32;14.33;;;6.87;;
42066;SDS011;27734;47.028;28.820;2023-11-19T11:35:15;13.13;;;6.67;;
42066;SDS011;27734;47.028;28.820;2023-11-19T11:38:01;12.60;;;6.13;;
42066;SDS011;27734;47.028;28.820;2023-11-19T11:40:36;17.00;;;6.50;;
42066;SDS011;27734;47.028;28.820;2023-11-19T11:43:19;15.20;;;7.07;;
42066;SDS011;27734;47.028;28.820;2023-11-19T11:49:28;14.17;;;6.50;;
42066;SDS011;27734;47.028;28.820;2023-11-19T11:52:04;14.13;;;6.77;;
42066;SDS011;27734;47.028;28.820;2023-11-19T11:54:36;17.17;;;7.87;;
42066;SDS011;27734;47.028;28.820;2023-11-19T11:57:10;17.20;;;8.15;;
42066;SDS011;27734;47.028;28.820;2023-11-19T12:02:15;17.47;;;7.90;;
42066;SDS011;27734;47.028;28.820;2023-11-19T12:04:52;16.43;;;8.47;;
42066;SDS011;27734;47.028;28.820;2023-11-19T12:07:24;19.10;;;8.57;;
42066;SDS011;27734;47.028;28.820;2023-11-19T12:10:06;15.17;;;7.83;;
42066;SDS011;27734;47.028;28.820;2023-11-19T12:12:40;16.42;;;7.75;;
42066;SDS011;27734;47.028;28.820;2023-11-19T12:15:11;17.40;;;8.30;;
42066;SDS011;27734;47.028;28.820;2023-11-19T12:17:46;16.13;;;7.77;;
42066;SDS011;27734;47.028;28.820;2023-11-19T12:20:19;19.93;;;7.80;;
42066;SDS011;27734;47.028;28.820;2023-11-19T12:22:52;15.93;;;7.87;;
42066;SDS011;27734;47.028;28.820;2023-11-19T12:25:24;14.80;;;7.33;;
42066;SDS011;27734;47.028;28.820;2023-11-19T12:27:56;18.63;;;8.13;;
42066;SDS011;27734;47.028;28.820;2023-11-19T12:30:32;17.63;;;7.87;;
42066;SDS011;27734;47.028;28.820;2023-11-19T12:33:07;19.53;;;8.10;;
42066;SDS011;27734;47.028;28.820;2023-11-19T12:35:40;18.33;;;8.17;;
42066;SDS011;27734;47.028;28.820;2023-11-19T12:38:19;17.50;;;7.57;;
42066;SDS011;27734;47.028;28.820;2023-11-19T12:41:03;15.80;;;7.60;;
42066;SDS011;27734;47.028;28.820;2023-11-19T12:43:36;20.10;;;8.10;;
42066;SDS011;27734;47.028;28.820;2023-11-19T12:46:17;17.97;;;7.83;;
42066;SDS011;27734;47.028;28.820;2023-11-19T12:48:50;21.83;;;8.20;;
42066;SDS011;27734;47.028;28.820;2023-11-19T12:51:22;18.57;;;8.23;;
42066;SDS011;27734;47.028;28.820;2023-11-19T12:54:00;16.33;;;7.63;;
42066;SDS011;27734;47.028;28.820;2023-11-19T12:56:33;19.73;;;8.57;;
42066;SDS011;27734;47.028;28.820;2023-11-19T12:59:14;17.90;;;8.33;;
42066;SDS011;27734;47.028;28.820;2023-11-19T13:01:54;19.67;;;8.47;;
42066;SDS011;27734;47.028;28.820;2023-11-19T13:04:29;17.20;;;7.90;;
42066;SDS011;27734;47.028;28.820;2023-11-19T13:07:01;15.77;;;7.67;;
42066;SDS011;27734;47.028;28.820;2023-11-19T13:09:33;15.53;;;7.70;;
42066;SDS011;27734;47.028;28.820;2023-11-19T13:12:13;19.20;;;7.77;;
42066;SDS011;27734;47.028;28.820;2023-11-19T13:14:45;19.73;;;7.67;;
42066;SDS011;27734;47.028;28.820;2023-11-19T13:17:17;16.07;;;7.50;;
42066;SDS011;27734;47.028;28.820;2023-11-19T13:19:49;17.00;;;7.60;;
42066;SDS011;27734;47.028;28.820;2023-11-19T13:22:20;16.33;;;8.20;;
42066;SDS011;27734;47.028;28.820;2023-11-19T13:24:52;22.10;;;8.60;;
42066;SDS011;27734;47.028;28.820;2023-11-19T13:27:23;17.17;;;8.53;;
42066;SDS011;27734;47.028;28.820;2023-11-19T13:29:55;17.40;;;7.90;;
42066;SDS011;27734;47.028;28.820;2023-11-19T13:32:27;15.83;;;7.90;;
42066;SDS011;27734;47.028;28.820;2023-11-19T13:34:59;16.53;;;7.83;;
42066;SDS011;27734;47.028;28.820;2023-11-19T13:37:31;20.40;;;8.83;;
42066;SDS011;27734;47.028;28.820;2023-11-19T13:40:03;17.63;;;8.37;;
42066;SDS011;27734;47.028;28.820;2023-11-19T13:42:36;19.40;;;8.80;;
42066;SDS011;27734;47.028;28.820;2023-11-19T13:45:09;18.07;;;8.03;;
42066;SDS011;27734;47.028;28.820;2023-11-19T13:47:42;17.27;;;8.87;;
42066;SDS011;27734;47.028;28.820;2023-11-19T13:50:14;17.47;;;8.47;;
42066;SDS011;27734;47.028;28.820;2023-11-19T13:52:46;18.60;;;8.57;;
42066;SDS011;27734;47.028;28.820;2023-11-19T13:55:18;19.37;;;9.33;;
42066;SDS011;27734;47.028;28.820;2023-11-19T13:57:50;19.57;;;8.97;;
42066;SDS011;27734;47.028;28.820;2023-11-19T14:00:22;18.07;;;9.40;;
42066;SDS011;27734;47.028;28.820;2023-11-19T14:02:53;18.23;;;8.53;;
42066;SDS011;27734;47.028;28.820;2023-11-19T14:05:25;19.30;;;9.60;;
42066;SDS011;27734;47.028;28.820;2023-11-19T14:07:56;18.40;;;8.93;;
42066;SDS011;27734;47.028;28.820;2023-11-19T14:10:29;17.47;;;9.47;;
42066;SDS011;27734;47.028;28.820;2023-11-19T14:13:01;17.07;;;8.50;;
42066;SDS011;27734;47.028;28.820;2023-11-19T14:15:32;16.20;;;8.03;;
42066;SDS011;27734;47.028;28.820;2023-11-19T14:18:04;18.55;;;9.50;;
42066;SDS011;27734;47.028;28.820;2023-11-19T14:20:36;18.37;;;9.20;;
42066;SDS011;27734;47.028;28.820;2023-11-19T14:23:08;17.93;;;9.00;;
42066;SDS011;27734;47.028;28.820;2023-11-19T14:25:39;19.37;;;9.57;;
42066;SDS011;27734;47.028;28.820;2023-11-19T14:28:11;18.43;;;8.90;;
42066;SDS011;27734;47.028;28.820;2023-11-19T14:30:42;18.50;;;9.13;;
42066;SDS011;27734;47.028;28.820;2023-11-19T14:33:15;17.97;;;9.17;;
42066;SDS011;27734;47.028;28.820;2023-11-19T14:35:47;18.13;;;9.07;;
42066;SDS011;27734;47.028;28.820;2023-11-19T14:38:18;20.63;;;9.90;;
42066;SDS011;27734;47.028;28.820;2023-11-19T14:40:50;17.80;;;8.87;;
42066;SDS011;27734;47.028;28.820;2023-11-19T14:43:23;16.53;;;7.80;;
42066;SDS011;27734;47.028;28.820;2023-11-19T14:45:54;17.77;;;8.60;;
42066;SDS011;27734;47.028;28.820;2023-11-19T14:48:26;15.80;;;8.20;;
42066;SDS011;27734;47.028;28.820;2023-11-19T14:50:57;19.30;;;8.77;;
42066;SDS011;27734;47.028;28.820;2023-11-19T14:53:29;17.40;;;8.27;;
42066;SDS011;27734;47.028;28.820;2023-11-19T14:56:01;17.93;;;9.33;;
42066;SDS011;27734;47.028;28.820;2023-11-19T14:58:35;19.03;;;8.93;;
42066;SDS011;27734;47.028;28.820;2023-11-19T15:01:07;16.83;;;8.50;;
42066;SDS011;27734;47.028;28.820;2023-11-19T15:03:43;18.10;;;9.00;;
42066;SDS011;27734;47.028;28.820;2023-11-19T15:06:15;15.93;;;7.73;;
42066;SDS011;27734;47.028;28.820;2023-11-19T15:08:47;16.50;;;8.20;;